Time;durP1;ratioP1;P1;durP2;ratioP2;P2;SDS_P1;SDS_P2;PMS_P1;PMS_P2;Temp;Humidity;BMP_temperature;BMP_pressure;BME280_temperature;BME280_humidity;BME280_pressure;Samples;Min_cycle;Max_cycle;Signal;HPM_P1;HPM_P2
2022/11/10 00:01:09;;;;;;;1.00;0.60;;;21.60;53.80;;;;;;6223340;28;20052;-40
2022/11/10 00:04:28;;;;;;;1.17;0.80;;;21.60;53.70;;;;;;6209102;28;20049;-39
2022/11/10 00:07:48;;;;;;;1.73;1.05;;;21.60;53.80;;;;;;6219530;28;20036;-41
2022/11/10 00:11:08;;;;;;;0.82;0.63;;;21.40;53.70;;;;;;6222142;28;20044;-39
2022/11/10 00:18:00;;;;;;;0.98;0.65;;;20.90;53.20;;;;;;6221064;28;20510;-38
2022/11/10 00:21:19;;;;;;;0.93;0.77;;;21.40;53.40;;;;;;6223085;28;20057;-39
2022/11/10 00:24:38;;;;;;;0.73;0.40;;;21.50;53.60;;;;;;6224690;28;22346;-41
2022/11/10 00:27:58;;;;;;;1.00;0.63;;;21.50;53.20;;;;;;6224333;28;20056;-38
2022/11/10 00:31:18;;;;;;;1.05;0.70;;;21.40;53.40;;;;;;6221443;28;20036;-39
2022/11/10 00:34:38;;;;;;;0.90;0.68;;;21.50;53.70;;;;;;6219184;28;20044;-38
2022/11/10 00:37:59;;;;;;;0.77;0.55;;;21.30;53.50;;;;;;6217112;28;20052;-38
2022/11/10 00:41:18;;;;;;;0.55;0.40;;;21.50;53.50;;;;;;6218884;28;20497;-39
2022/11/10 00:44:38;;;;;;;0.60;0.43;;;21.10;53.10;;;;;;6221544;28;20059;-39
2022/11/10 00:47:58;;;;;;;0.90;0.45;;;21.30;53.40;;;;;;6217625;28;20917;-38
2022/11/10 00:51:22;;;;;;;0.80;0.40;;;21.20;53.30;;;;;;6220306;28;20088;-39
2022/11/10 00:54:39;;;;;;;0.57;0.40;;;21.40;53.10;;;;;;6207583;28;20076;-39
2022/11/10 00:57:58;;;;;;;0.90;0.50;;;21.30;52.80;;;;;;6225619;28;20053;-39
2022/11/10 01:01:20;;;;;;;0.93;0.60;;;21.40;53.20;;;;;;6224676;28;20052;-38
2022/11/10 01:04:38;;;;;;;0.57;0.50;;;21.20;52.90;;;;;;6220632;28;20106;-42
2022/11/10 01:07:58;;;;;;;0.60;0.40;;;21.20;52.90;;;;;;6218834;28;21177;-38
2022/11/10 01:11:21;;;;;;;0.40;0.40;;;21.40;52.80;;;;;;6219878;28;20092;-39
2022/11/10 01:14:38;;;;;;;0.70;0.60;;;21.40;52.60;;;;;;6226373;28;20268;-39
2022/11/10 01:17:58;;;;;;;0.60;0.50;;;21.10;52.60;;;;;;6257101;22;20060;-39
2022/11/10 01:21:19;;;;;;;0.50;0.50;;;21.30;52.60;;;;;;6239703;28;20851;-40
2022/11/10 01:24:38;;;;;;;0.93;0.55;;;21.20;52.60;;;;;;6243569;28;20066;-38
2022/11/10 01:27:58;;;;;;;0.70;0.50;;;21.20;52.60;;;;;;6239217;28;20060;-38
2022/11/10 01:31:20;;;;;;;0.50;0.40;;;21.30;52.70;;;;;;6237651;28;20152;-41
2022/11/10 01:34:38;;;;;;;0.75;0.52;;;21.40;52.60;;;;;;6227604;28;20088;-39
2022/11/10 01:37:58;;;;;;;0.60;0.40;;;21.10;52.70;;;;;;6243728;28;22918;-41
2022/11/10 01:41:18;;;;;;;0.80;0.50;;;21.30;52.80;;;;;;6249895;28;20048;-38
2022/11/10 01:44:40;;;;;;;0.60;0.40;;;21.80;52.20;;;;;;6243152;28;20621;-38
2022/11/10 01:48:03;;;;;;;0.40;0.40;;;21.10;52.50;;;;;;6240399;28;20087;-38
2022/11/10 01:51:23;;;;;;;0.60;0.40;;;21.20;52.50;;;;;;6229690;28;21031;-39
2022/11/10 01:54:42;;;;;;;0.60;0.35;;;21.20;52.40;;;;;;6241777;28;20045;-40
2022/11/10 01:57:58;;;;;;;0.85;0.50;;;21.00;52.40;;;;;;6222392;28;20134;-39
2022/11/10 02:01:19;;;;;;;0.70;0.57;;;20.70;52.30;;;;;;6239848;28;20088;-39
2022/11/10 02:04:40;;;;;;;0.77;0.50;;;21.20;52.60;;;;;;6242849;28;20130;-40
2022/11/10 02:07:59;;;;;;;0.55;0.43;;;21.30;52.80;;;;;;6247723;22;20517;-38
2022/11/10 02:11:19;;;;;;;1.05;0.40;;;21.40;52.80;;;;;;6210416;28;20116;-39
2022/11/10 02:14:38;;;;;;;0.70;0.50;;;21.30;52.80;;;;;;6206205;28;20053;-38
2022/11/10 02:17:58;;;;;;;0.73;0.40;;;21.30;52.80;;;;;;6198366;28;20048;-38
2022/11/10 02:21:19;;;;;;;0.60;0.40;;;21.00;52.90;;;;;;6203551;28;20164;-38
2022/11/10 02:24:38;;;;;;;0.60;0.40;;;21.20;52.90;;;;;;6184119;28;20778;-41
2022/11/10 02:27:58;;;;;;;0.77;0.40;;;21.00;52.80;;;;;;6199642;28;20053;-39
2022/11/10 02:31:18;;;;;;;0.75;0.40;;;21.00;52.80;;;;;;6199249;28;20053;-38
2022/11/10 02:34:38;;;;;;;0.60;0.40;;;20.70;52.80;;;;;;6201914;28;20167;-39
2022/11/10 02:37:58;;;;;;;0.60;0.40;;;21.00;52.80;;;;;;6208238;28;20049;-39
2022/11/10 02:41:18;;;;;;;0.73;0.40;;;21.20;52.90;;;;;;6208295;28;20888;-38
2022/11/10 02:44:39;;;;;;;0.52;0.43;;;20.90;52.70;;;;;;6204196;28;20164;-39
2022/11/10 02:47:58;;;;;;;0.60;0.43;;;20.60;52.20;;;;;;6182781;28;20050;-38
2022/11/10 02:51:19;;;;;;;0.52;0.40;;;21.10;52.20;;;;;;6201135;28;20053;-38
2022/11/10 02:54:39;;;;;;;0.47;0.25;;;21.10;51.60;;;;;;6196722;28;20049;-39
2022/11/10 02:57:58;;;;;;;0.47;0.40;;;21.00;52.20;;;;;;6198850;28;20824;-40
2022/11/10 03:01:18;;;;;;;0.38;0.28;;;21.20;52.70;;;;;;6199421;28;20056;-39
2022/11/10 03:04:38;;;;;;;0.70;0.40;;;20.90;52.10;;;;;;6196692;28;20848;-40
2022/11/10 03:07:59;;;;;;;0.45;0.40;;;20.50;52.40;;;;;;6193195;28;20077;-39
2022/11/10 03:11:18;;;;;;;0.40;0.22;;;21.00;52.50;;;;;;6182396;28;20049;-38
2022/11/10 03:14:38;;;;;;;0.70;0.40;;;21.10;52.70;;;;;;6197264;28;20041;-39
2022/11/10 03:18:02;;;;;;;0.40;0.30;;;20.90;52.70;;;;;;6203098;28;20049;-39
2022/11/10 03:21:18;;;;;;;0.25;0.20;;;21.00;52.70;;;;;;6189914;28;20502;-38
2022/11/10 03:24:38;;;;;;;0.30;0.30;;;21.00;52.90;;;;;;6190094;28;20045;-39
2022/11/10 03:27:59;;;;;;;0.50;0.30;;;20.90;52.90;;;;;;6190793;28;20409;-39
2022/11/10 03:31:19;;;;;;;0.30;0.20;;;21.00;52.80;;;;;;6186338;28;20252;-38
2022/11/10 03:34:38;;;;;;;0.40;0.32;;;21.10;52.90;;;;;;6196819;28;20436;-40
2022/11/10 03:37:58;;;;;;;0.52;0.30;;;21.00;53.00;;;;;;6186972;28;20368;-39
2022/11/10 03:41:18;;;;;;;0.28;0.28;;;21.00;53.10;;;;;;6194157;28;20060;-39
2022/11/10 03:44:38;;;;;;;0.40;0.40;;;20.70;52.90;;;;;;6192536;28;22070;-39
2022/11/10 03:47:58;;;;;;;0.40;0.30;;;21.20;53.20;;;;;;6198531;28;20053;-39
2022/11/10 03:51:18;;;;;;;0.60;0.35;;;21.10;53.10;;;;;;6214167;28;20063;-38
2022/11/10 03:54:38;;;;;;;0.30;0.30;;;20.60;52.90;;;;;;6198941;28;20985;-39
2022/11/10 03:58:01;;;;;;;0.63;0.30;;;21.00;53.00;;;;;;6206064;28;20049;-39
2022/11/10 04:01:18;;;;;;;0.20;0.20;;;21.00;52.90;;;;;;6205301;28;20040;-39
2022/11/10 04:18:49;;;;;;;0.32;0.30;;;21.00;53.00;;;;;;6201666;28;20049;-39
2022/11/10 04:23:25;;;;;;;0.63;0.30;;;21.10;53.20;;;;;;6206548;28;20041;-39
2022/11/10 04:29:19;;;;;;;0.30;0.20;;;20.70;52.90;;;;;;6186228;28;20053;-38
2022/11/10 04:32:38;;;;;;;0.43;0.35;;;20.70;52.80;;;;;;6198384;28;20041;-39
2022/11/10 04:35:59;;;;;;;0.63;0.22;;;21.10;53.20;;;;;;6197043;28;20980;-38
2022/11/10 04:39:18;;;;;;;0.25;0.20;;;21.00;52.80;;;;;;6194012;28;20274;-39
2022/11/10 04:42:39;;;;;;;0.40;0.30;;;20.80;53.10;;;;;;6185311;28;20334;-38
2022/11/10 04:45:59;;;;;;;0.20;0.20;;;21.00;53.30;;;;;;6190860;28;20528;-39
2022/11/10 04:49:18;;;;;;;0.35;0.20;;;20.50;53.00;;;;;;6201803;28;20171;-39
2022/11/10 04:52:39;;;;;;;0.40;0.40;;;20.90;53.20;;;;;;6202908;28;20431;-39
2022/11/10 04:55:58;;;;;;;0.28;0.28;;;20.60;53.20;;;;;;6194032;28;20049;-39
2022/11/10 04:59:18;;;;;;;0.77;0.38;;;21.00;53.30;;;;;;6188383;28;20559;-38
2022/11/10 05:02:38;;;;;;;0.30;0.30;;;21.00;53.40;;;;;;6192111;28;20866;-38
2022/11/10 05:05:58;;;;;;;0.20;0.20;;;20.80;52.90;;;;;;6192246;28;20431;-38
2022/11/10 05:09:19;;;;;;;0.40;0.30;;;20.90;53.20;;;;;;6189225;28;20451;-41
2022/11/10 05:12:38;;;;;;;0.30;0.20;;;20.70;53.10;;;;;;6189402;28;20045;-39
2022/11/10 05:15:58;;;;;;;0.50;0.30;;;21.10;53.30;;;;;;6186914;28;20395;-40
2022/11/10 05:19:18;;;;;;;0.30;0.22;;;20.80;53.10;;;;;;6188810;28;20370;-39
2022/11/10 05:22:38;;;;;;;0.30;0.28;;;21.00;53.30;;;;;;6185384;28;21148;-40
2022/11/10 05:25:59;;;;;;;0.50;0.40;;;21.00;52.70;;;;;;6189246;28;20295;-38
2022/11/10 05:29:18;;;;;;;0.70;0.40;;;20.90;53.10;;;;;;6184715;28;20155;-38
2022/11/10 05:32:38;;;;;;;0.65;0.43;;;21.10;53.20;;;;;;6189325;28;20471;-41
2022/11/10 05:35:58;;;;;;;0.55;0.43;;;20.80;53.00;;;;;;6193210;28;20198;-38
2022/11/10 05:39:18;;;;;;;0.52;0.35;;;20.80;53.20;;;;;;6175887;28;20166;-39
2022/11/10 05:42:42;;;;;;;0.43;0.35;;;21.00;53.10;;;;;;6188706;28;20202;-38
2022/11/10 05:45:58;;;;;;;0.50;0.30;;;21.00;53.00;;;;;;6183704;28;20408;-38
2022/11/10 05:49:18;;;;;;;0.63;0.38;;;21.10;53.10;;;;;;6185491;28;20343;-39
2022/11/10 05:52:42;;;;;;;0.35;0.20;;;20.70;53.00;;;;;;6188474;28;20084;-39
2022/11/10 05:56:08;;;;;;;0.40;0.40;;;20.90;52.80;;;;;;6184200;28;20124;-38
2022/11/10 05:59:29;;;;;;;0.40;0.30;;;21.40;53.10;;;;;;6194846;28;20169;-39
2022/11/10 06:02:57;;;;;;;0.60;0.50;;;21.10;53.20;;;;;;6199798;28;20155;-39
2022/11/10 06:06:18;;;;;;;0.95;0.50;;;20.80;52.80;;;;;;6180257;28;20068;-41
2022/11/10 06:09:38;;;;;;;0.52;0.40;;;21.30;53.30;;;;;;6194796;28;20192;-41
2022/11/10 06:12:58;;;;;;;0.40;0.40;;;21.00;52.90;;;;;;6199886;28;20057;-39
2022/11/10 06:16:19;;;;;;;0.50;0.35;;;20.70;52.80;;;;;;6191969;28;20225;-39
2022/11/10 06:19:38;;;;;;;0.70;0.40;;;20.50;52.60;;;;;;6181599;28;20083;-38
2022/11/10 06:23:01;;;;;;;0.77;0.30;;;20.80;52.80;;;;;;6183303;28;20728;-40
2022/11/10 06:26:18;;;;;;;0.38;0.30;;;20.80;52.70;;;;;;6163797;28;20059;-38
2022/11/10 06:29:38;;;;;;;0.45;0.40;;;20.90;52.90;;;;;;6184303;28;20140;-38
2022/11/10 06:32:59;;;;;;;0.60;0.50;;;20.70;52.60;;;;;;6184080;28;20056;-38
2022/11/10 06:36:18;;;;;;;0.45;0.35;;;20.70;52.50;;;;;;6169773;28;20057;-38
2022/11/10 06:39:38;;;;;;;0.60;0.50;;;21.00;52.70;;;;;;6165487;28;20556;-39
2022/11/10 06:42:58;;;;;;;0.43;0.40;;;20.90;52.60;;;;;;6180521;28;20060;-41
2022/11/10 06:46:18;;;;;;;0.60;0.50;;;20.80;52.50;;;;;;6173296;28;20471;-39
2022/11/10 06:49:39;;;;;;;0.55;0.52;;;20.80;52.60;;;;;;6180309;28;20514;-39
2022/11/10 06:52:59;;;;;;;0.52;0.45;;;21.00;52.60;;;;;;6172366;28;20152;-39
2022/11/10 06:56:18;;;;;;;0.57;0.55;;;20.30;52.10;;;;;;6160154;28;20318;-42
2022/11/10 06:59:38;;;;;;;0.50;0.47;;;20.90;52.30;;;;;;6172211;28;20271;-38
2022/11/10 07:03:00;;;;;;;0.50;0.50;;;21.00;52.50;;;;;;6151969;28;20363;-39
2022/11/10 07:06:19;;;;;;;0.65;0.40;;;20.90;52.40;;;;;;6157980;28;20470;-39
2022/11/10 07:09:38;;;;;;;0.30;0.30;;;20.70;52.30;;;;;;6153509;28;20512;-38
2022/11/10 07:12:59;;;;;;;0.50;0.40;;;21.00;52.20;;;;;;6168838;28;20088;-39
2022/11/10 07:16:18;;;;;;;0.70;0.60;;;20.50;52.30;;;;;;6156787;28;20162;-38
2022/11/10 07:19:38;;;;;;;0.60;0.60;;;21.00;52.50;;;;;;6150915;28;21097;-38
2022/11/10 07:23:00;;;;;;;0.40;0.40;;;20.40;52.40;;;;;;6162447;28;20476;-38
2022/11/10 07:26:18;;;;;;;0.70;0.52;;;21.30;52.70;;;;;;6143824;28;20131;-40
2022/11/10 07:29:38;;;;;;;0.82;0.57;;;20.80;52.70;;;;;;6153594;28;20516;-38
2022/11/10 07:33:00;;;;;;;0.30;0.30;;;21.00;52.40;;;;;;6138751;28;20060;-39
2022/11/10 07:36:18;;;;;;;0.93;0.55;;;20.80;53.10;;;;;;6143256;28;21131;-38
2022/11/10 07:39:39;;;;;;;0.70;0.57;;;20.80;52.50;;;;;;6119013;28;20158;-38
2022/11/10 07:42:58;;;;;;;1.52;0.52;;;20.90;52.70;;;;;;6126296;28;20124;-38
2022/11/10 07:46:18;;;;;;;1.08;0.55;;;20.90;52.70;;;;;;6119571;28;20277;-39
2022/11/10 07:49:38;;;;;;;0.57;0.55;;;21.00;52.90;;;;;;6114409;28;20053;-38
2022/11/10 07:53:03;;;;;;;1.45;1.05;;;20.50;52.40;;;;;;6102551;28;20127;-39
2022/11/10 07:56:19;;;;;;;0.88;0.60;;;20.80;52.70;;;;;;6074950;28;20057;-39
2022/11/10 07:59:38;;;;;;;0.80;0.60;;;21.00;52.40;;;;;;6055668;28;20065;-40
2022/11/10 08:03:03;;;;;;;0.68;0.50;;;21.30;53.30;;;;;;6003434;28;22006;-39
2022/11/10 08:06:18;;;;;;;0.60;0.60;;;21.30;53.20;;;;;;6005080;28;20126;-39
2022/11/10 08:09:38;;;;;;;1.15;0.32;;;21.50;53.60;;;;;;5990007;28;20176;-39
2022/11/10 08:13:00;;;;;;;0.90;0.50;;;21.00;53.00;;;;;;5960583;28;20130;-37
2022/11/10 08:16:18;;;;;;;0.95;0.85;;;21.00;53.20;;;;;;6008165;28;20057;-36
2022/11/10 08:19:38;;;;;;;0.50;0.43;;;21.20;53.10;;;;;;5992681;28;21647;-36
2022/11/10 08:23:00;;;;;;;0.40;0.30;;;21.10;53.40;;;;;;5965876;28;20088;-36
2022/11/10 08:26:18;;;;;;;0.80;0.40;;;21.00;53.30;;;;;;6048652;28;20157;-37
2022/11/10 08:29:39;;;;;;;0.70;0.50;;;21.10;53.60;;;;;;6021759;28;20100;-36
2022/11/10 08:33:00;;;;;;;0.45;0.40;;;21.00;53.30;;;;;;5986180;28;20057;-36
2022/11/10 08:36:18;;;;;;;0.75;0.50;;;20.80;54.00;;;;;;6007260;28;20838;-37
2022/11/10 08:39:39;;;;;;;0.60;0.50;;;21.30;53.50;;;;;;5998309;28;20191;-36
2022/11/10 08:42:59;;;;;;;0.50;0.40;;;20.90;53.20;;;;;;5970835;28;22694;-36
2022/11/10 08:46:19;;;;;;;0.73;0.40;;;21.10;53.50;;;;;;5977337;28;20060;-36
2022/11/10 08:49:38;;;;;;;0.60;0.40;;;21.10;53.70;;;;;;5994444;28;20533;-36
2022/11/10 08:53:00;;;;;;;0.40;0.40;;;20.90;53.50;;;;;;5980725;28;20049;-36
2022/11/10 08:56:18;;;;;;;0.43;0.30;;;21.10;53.70;;;;;;5933953;28;22056;-36
2022/11/10 08:59:38;;;;;;;0.90;0.70;;;21.20;54.00;;;;;;5995860;28;21561;-36
2022/11/10 09:03:06;;;;;;;1.15;0.85;;;21.30;54.30;;;;;;5923836;28;20077;-37
2022/11/10 09:06:18;;;;;;;1.60;1.30;;;21.30;54.50;;;;;;5973074;28;20045;-37
2022/11/10 09:09:38;;;;;;;1.27;0.98;;;20.90;55.00;;;;;;5974461;28;20054;-36
2022/11/10 09:12:59;;;;;;;1.15;0.90;;;21.30;54.60;;;;;;5985470;28;20057;-36
2022/11/10 09:16:18;;;;;;;1.00;0.88;;;21.20;54.60;;;;;;5994054;28;21501;-36
2022/11/10 09:19:39;;;;;;;1.00;0.80;;;21.30;55.00;;;;;;5983023;28;20057;-36
2022/11/10 09:23:05;;;;;;;0.80;0.40;;;21.30;55.10;;;;;;5971033;28;20056;-36
2022/11/10 09:26:18;;;;;;;0.60;0.50;;;21.20;55.20;;;;;;5950371;28;20048;-35
2022/11/10 09:29:38;;;;;;;1.00;0.57;;;21.10;55.40;;;;;;5979301;28;20052;-36
2022/11/10 09:33:00;;;;;;;0.70;0.50;;;21.30;55.80;;;;;;5972902;28;21010;-36
2022/11/10 09:36:19;;;;;;;0.50;0.40;;;21.20;55.80;;;;;;5986581;28;20052;-36
2022/11/10 09:39:38;;;;;;;0.30;0.30;;;21.40;56.10;;;;;;5981734;28;22337;-36
2022/11/10 09:43:02;;;;;;;0.55;0.30;;;21.20;55.90;;;;;;5960071;28;20052;-37
2022/11/10 09:46:24;;;;;;;0.30;0.30;;;20.80;55.90;;;;;;5959779;28;20084;-36
2022/11/10 09:49:43;;;;;;;0.52;0.30;;;21.30;56.50;;;;;;5983900;28;22629;-37
2022/11/10 09:53:16;;;;;;;0.63;0.30;;;21.50;56.70;;;;;;5996220;28;21373;-36
2022/11/10 10:06:20;;;;;;;1.02;0.45;;;21.60;61.30;;;;;;5990619;28;20041;-36
2022/11/10 10:09:49;;;;;;;0.27;0.20;;;21.40;62.80;;;;;;5982983;28;20060;-38
2022/11/10 10:13:26;;;;;;;0.50;0.30;;;21.40;63.20;;;;;;5998959;28;20167;-36
2022/11/10 10:16:47;;;;;;;0.40;0.30;;;21.20;63.30;;;;;;5959924;28;20092;-35
2022/11/10 10:20:15;;;;;;;0.30;0.30;;;21.60;61.60;;;;;;6001279;28;20056;-37
2022/11/10 10:23:33;;;;;;;0.45;0.35;;;21.40;63.20;;;;;;5976816;28;20056;-35
2022/11/10 10:27:13;;;;;;;0.35;0.28;;;21.40;63.30;;;;;;5969816;28;21235;-35
2022/11/10 10:30:28;;;;;;;0.50;0.32;;;20.90;63.30;;;;;;6111280;28;20064;-36
2022/11/10 10:33:49;;;;;;;0.35;0.20;;;21.70;63.10;;;;;;6134670;28;20049;-36
2022/11/10 10:37:21;;;;;;;1.00;0.35;;;21.50;62.40;;;;;;5987337;28;20067;-37
2022/11/10 10:40:40;;;;;;;0.50;0.40;;;21.90;64.20;;;;;;5969054;28;20060;-37
2022/11/10 10:44:02;;;;;;;1.20;0.73;;;21.20;64.00;;;;;;5999548;28;20064;-37
2022/11/10 10:47:18;;;;;;;1.13;0.85;;;21.60;64.20;;;;;;5996969;28;21218;-37
2022/11/10 10:50:42;;;;;;;1.30;0.85;;;21.20;64.60;;;;;;6011473;28;20060;-38
2022/11/10 10:53:58;;;;;;;1.33;0.80;;;21.40;64.50;;;;;;5987964;28;20044;-37
2022/11/10 10:57:21;;;;;;;0.73;0.60;;;21.20;64.00;;;;;;5958142;28;20183;-37
2022/11/10 11:00:43;;;;;;;0.85;0.50;;;21.50;64.30;;;;;;5965441;28;20057;-37
2022/11/10 11:04:00;;;;;;;0.60;0.47;;;21.70;64.60;;;;;;5984355;28;21218;-37
2022/11/10 11:07:21;;;;;;;0.52;0.30;;;21.30;64.20;;;;;;5993473;28;20056;-37
2022/11/10 11:10:45;;;;;;;0.55;0.30;;;21.30;64.30;;;;;;5989735;28;20060;-37
2022/11/10 11:14:14;;;;;;;0.65;0.40;;;21.60;64.60;;;;;;5974877;28;20387;-37
2022/11/10 11:17:29;;;;;;;0.95;0.30;;;21.70;64.50;;;;;;5993028;28;20061;-37
2022/11/10 11:20:59;;;;;;;0.40;0.20;;;21.40;64.50;;;;;;6015579;28;20057;-37
2022/11/10 11:24:28;;;;;;;0.63;0.20;;;21.70;64.60;;;;;;6035640;28;22208;-37
2022/11/10 11:27:59;;;;;;;0.50;0.30;;;21.40;64.30;;;;;;6035514;28;20978;-37
2022/11/10 11:31:24;;;;;;;0.30;0.20;;;21.60;64.30;;;;;;6032966;28;21796;-37
2022/11/10 11:34:47;;;;;;;0.10;0.10;;;21.80;64.30;;;;;;6060753;28;20160;-37
2022/11/10 11:38:12;;;;;;;0.80;0.32;;;21.90;64.10;;;;;;6046755;28;20048;-37
2022/11/10 11:41:39;;;;;;;0.40;0.30;;;21.70;64.10;;;;;;6077349;28;20250;-38
2022/11/10 11:45:13;;;;;;;0.55;0.30;;;21.60;64.30;;;;;;6082715;28;20045;-37
2022/11/10 11:48:40;;;;;;;1.05;0.10;;;21.80;63.10;;;;;;6085508;28;20158;-37
2022/11/10 11:52:07;;;;;;;0.20;0.20;;;21.20;62.60;;;;;;6051857;28;20063;-37
2022/11/10 11:55:30;;;;;;;0.40;0.20;;;21.80;62.70;;;;;;6093075;28;20049;-38
2022/11/10 11:59:01;;;;;;;0.28;0.20;;;21.80;62.70;;;;;;6088428;28;21959;-37
2022/11/10 12:02:36;;;;;;;0.60;0.20;;;21.40;62.30;;;;;;6082169;28;20941;-38
2022/11/10 12:06:03;;;;;;;1.25;0.30;;;21.40;62.40;;;;;;6104450;28;21884;-37
2022/11/10 12:09:26;;;;;;;0.30;0.28;;;21.60;62.20;;;;;;6094648;28;20049;-38
2022/11/10 12:12:57;;;;;;;0.20;0.10;;;21.60;62.00;;;;;;6081609;28;20085;-37
2022/11/10 12:16:24;;;;;;;0.77;0.20;;;22.10;62.50;;;;;;6090840;28;20041;-37
2022/11/10 12:19:46;;;;;;;0.40;0.10;;;22.00;62.00;;;;;;6095928;28;21924;-37
2022/11/10 12:23:08;;;;;;;0.47;0.20;;;22.00;61.90;;;;;;6094354;28;20160;-38
2022/11/10 12:26:40;;;;;;;0.60;0.28;;;22.30;61.90;;;;;;6080849;28;20055;-37
2022/11/10 12:30:03;;;;;;;0.43;0.32;;;21.30;61.20;;;;;;6077990;28;20045;-38
2022/11/10 12:33:35;;;;;;;0.30;0.22;;;21.90;61.40;;;;;;6049818;22;22310;-37
2022/11/10 12:36:50;;;;;;;0.50;0.30;;;22.00;61.50;;;;;;6101207;28;20070;-37
2022/11/10 12:40:15;;;;;;;0.68;0.20;;;21.90;61.20;;;;;;6072619;28;20133;-37
2022/11/10 12:43:37;;;;;;;0.30;0.20;;;21.70;61.90;;;;;;6077651;28;20056;-38
2022/11/10 12:47:04;;;;;;;0.40;0.25;;;22.10;61.30;;;;;;6072751;28;21413;-37
2022/11/10 12:50:27;;;;;;;0.98;0.30;;;22.60;62.10;;;;;;6056640;28;20174;-37
2022/11/10 12:53:40;;;;;;;0.40;0.20;;;21.60;60.50;;;;;;6059610;28;20052;-37
2022/11/10 12:57:03;;;;;;;0.50;0.30;;;21.70;61.00;;;;;;6037970;28;20064;-38
2022/11/10 13:00:25;;;;;;;0.40;0.20;;;21.60;60.90;;;;;;6008421;28;20052;-39
2022/11/10 13:03:54;;;;;;;1.15;0.60;;;21.90;60.70;;;;;;5976001;28;20053;-38
2022/11/10 13:07:11;;;;;;;1.40;0.47;;;22.00;60.70;;;;;;6022493;28;20153;-36
2022/11/10 13:10:29;;;;;;;0.68;0.47;;;22.30;60.80;;;;;;6035005;28;20092;-41
2022/11/10 13:13:53;;;;;;;11.40;0.70;;;22.10;60.70;;;;;;6024885;28;22168;-41
2022/11/10 13:17:49;;;;;;;0.55;0.20;;;22.00;60.70;;;;;;6019391;22;20997;-39
2022/11/10 13:21:09;;;;;;;2.58;0.25;;;22.20;60.70;;;;;;5994568;28;20045;-39
2022/11/10 13:24:29;;;;;;;0.52;0.30;;;22.10;60.70;;;;;;6028391;28;21167;-39
2022/11/10 13:27:51;;;;;;;1.00;0.20;;;22.00;60.40;;;;;;6033485;28;20069;-39
2022/11/10 13:31:38;;;;;;;0.38;0.28;;;22.30;60.30;;;;;;6002761;28;20053;-42
2022/11/10 13:35:28;;;;;;;0.32;0.20;;;22.20;60.40;;;;;;5958203;28;20173;-40
2022/11/10 13:38:49;;;;;;;0.28;0.20;;;22.40;59.70;;;;;;5980131;28;21072;-40
2022/11/10 13:42:18;;;;;;;0.28;0.20;;;22.30;59.90;;;;;;5972876;28;20056;-39
2022/11/10 13:45:40;;;;;;;0.20;0.20;;;22.40;59.80;;;;;;6004062;28;20045;-40
2022/11/10 13:49:15;;;;;;;0.57;0.30;;;22.30;59.60;;;;;;5984161;28;20053;-40
2022/11/10 13:52:43;;;;;;;1.48;0.20;;;22.10;59.40;;;;;;5976108;28;21430;-38
2022/11/10 13:56:17;;;;;;;0.22;0.17;;;22.50;59.30;;;;;;5988573;28;20835;-40
2022/11/10 13:59:31;;;;;;;0.38;0.38;;;22.40;61.60;;;;;;5992477;28;20057;-39
2022/11/10 14:02:52;;;;;;;0.32;0.22;;;22.00;61.30;;;;;;5998380;28;20056;-39
2022/11/10 14:06:13;;;;;;;0.57;0.20;;;22.40;61.30;;;;;;5991301;28;21034;-38
2022/11/10 14:09:33;;;;;;;0.22;0.10;;;23.00;61.40;;;;;;5973434;28;20172;-38
2022/11/10 14:12:55;;;;;;;0.40;0.22;;;22.10;60.70;;;;;;5973097;28;20041;-39
2022/11/10 14:16:15;;;;;;;1.95;0.30;;;22.40;60.70;;;;;;5986131;28;20756;-40
2022/11/10 14:19:38;;;;;;;0.75;0.20;;;22.50;60.80;;;;;;5953179;28;20060;-40
2022/11/10 14:23:00;;;;;;;0.55;0.20;;;22.40;59.60;;;;;;5966347;28;23099;-42
2022/11/10 14:26:29;;;;;;;0.43;0.30;;;22.60;60.70;;;;;;6004045;28;20323;-40
2022/11/10 14:30:02;;;;;;;0.40;0.15;;;22.70;60.20;;;;;;5998885;28;20088;-40
2022/11/10 14:33:20;;;;;;;0.63;0.20;;;22.50;60.70;;;;;;5983935;28;20088;-41
2022/11/10 14:36:38;;;;;;;0.65;0.20;;;22.60;60.70;;;;;;5992216;28;20189;-40
2022/11/10 14:40:00;;;;;;;0.35;0.13;;;22.30;60.60;;;;;;5999009;28;21792;-41
2022/11/10 14:43:28;;;;;;;0.52;0.30;;;22.20;60.10;;;;;;5994310;28;20135;-42
2022/11/10 14:46:49;;;;;;;0.43;0.20;;;22.60;60.50;;;;;;6005988;28;20138;-42
2022/11/10 14:50:17;;;;;;;0.47;0.30;;;22.60;60.70;;;;;;5960605;28;22344;-40
2022/11/10 14:53:40;;;;;;;0.30;0.20;;;22.30;60.10;;;;;;5961899;28;20745;-41
2022/11/10 14:56:58;;;;;;;1.73;0.40;;;22.30;59.80;;;;;;5979179;28;20049;-41
2022/11/10 15:00:24;;;;;;;0.60;0.30;;;22.40;60.40;;;;;;5976140;28;20072;-42
2022/11/10 15:03:41;;;;;;;0.68;0.20;;;22.40;60.40;;;;;;5948977;28;20064;-40
2022/11/10 15:06:59;;;;;;;0.30;0.20;;;22.60;60.40;;;;;;5965963;28;20060;-40
2022/11/10 15:10:21;;;;;;;1.00;0.30;;;22.80;60.40;;;;;;5942551;28;20057;-39
2022/11/10 15:13:39;;;;;;;0.30;0.20;;;22.80;60.50;;;;;;5981394;28;20068;-40
2022/11/10 15:17:01;;;;;;;2.10;0.30;;;22.80;60.10;;;;;;5987328;28;22070;-38
2022/11/10 15:20:29;;;;;;;0.93;0.30;;;23.00;60.30;;;;;;5986853;28;20049;-38
2022/11/10 15:23:53;;;;;;;0.40;0.30;;;23.00;60.10;;;;;;5987090;28;20091;-41
2022/11/10 15:27:20;;;;;;;0.32;0.20;;;23.00;60.10;;;;;;5973633;28;20458;-40
2022/11/10 15:30:46;;;;;;;0.60;0.22;;;23.10;60.10;;;;;;5970264;28;23126;-41
2022/11/10 15:34:00;;;;;;;1.02;0.28;;;22.50;60.10;;;;;;5978155;28;20045;-39
2022/11/10 15:37:24;;;;;;;1.65;0.20;;;22.90;60.00;;;;;;5997011;28;20067;-39
2022/11/10 15:40:50;;;;;;;0.77;0.28;;;22.90;59.80;;;;;;5997381;28;21141;-41
2022/11/10 15:44:15;;;;;;;0.73;0.20;;;23.10;60.20;;;;;;6006646;28;20064;-39
2022/11/10 15:47:28;;;;;;;1.38;0.30;;;23.30;60.10;;;;;;6019880;28;20051;-39
2022/11/10 15:50:52;;;;;;;0.68;0.40;;;23.10;60.20;;;;;;6006360;28;20057;-39
2022/11/10 15:54:10;;;;;;;0.77;0.30;;;23.00;59.40;;;;;;6021142;28;20057;-40
2022/11/10 15:57:28;;;;;;;0.40;0.20;;;22.90;59.90;;;;;;5987225;28;23026;-39
2022/11/10 16:00:48;;;;;;;0.40;0.20;;;23.40;60.40;;;;;;5978113;28;20061;-40
2022/11/10 16:04:08;;;;;;;1.83;0.30;;;23.10;59.80;;;;;;5965832;28;20045;-41
2022/11/10 16:07:28;;;;;;;0.80;0.40;;;23.10;60.00;;;;;;5961538;28;20076;-38
2022/11/10 16:10:51;;;;;;;0.50;0.20;;;23.20;59.90;;;;;;5990033;28;20171;-40
2022/11/10 16:14:13;;;;;;;0.40;0.25;;;23.00;59.80;;;;;;5985508;28;22136;-39
2022/11/10 16:17:28;;;;;;;0.45;0.20;;;22.90;59.60;;;;;;6001819;28;20077;-38
2022/11/10 16:20:50;;;;;;;3.00;0.32;;;23.00;59.80;;;;;;5998813;28;20262;-40
2022/11/10 16:24:08;;;;;;;0.60;0.30;;;23.00;59.40;;;;;;6007949;28;20270;-39
2022/11/10 16:27:29;;;;;;;1.30;0.43;;;23.30;59.60;;;;;;6016994;28;20146;-40
2022/11/10 16:30:48;;;;;;;0.68;0.30;;;23.20;59.30;;;;;;6039825;28;23311;-40
2022/11/10 16:34:12;;;;;;;1.42;0.30;;;23.10;59.30;;;;;;6018599;28;20086;-41
2022/11/10 16:37:28;;;;;;;0.38;0.30;;;23.20;59.50;;;;;;6036514;28;20064;-44
2022/11/10 16:40:52;;;;;;;3.85;0.30;;;22.80;58.80;;;;;;6024722;28;20436;-41
2022/11/10 16:44:11;;;;;;;1.85;0.20;;;23.10;58.70;;;;;;6029502;28;20056;-39
2022/11/10 16:47:29;;;;;;;1.63;0.30;;;23.20;58.70;;;;;;6043380;28;22344;-36
2022/11/10 16:50:50;;;;;;;1.95;0.30;;;23.20;58.30;;;;;;6043013;28;20052;-37
2022/11/10 16:54:10;;;;;;;1.50;0.35;;;23.20;58.60;;;;;;6032534;28;20053;-36
2022/11/10 16:57:28;;;;;;;0.60;0.40;;;23.50;58.60;;;;;;6057502;28;20061;-38
2022/11/10 17:00:49;;;;;;;0.45;0.40;;;23.00;58.70;;;;;;6080619;28;20051;-35
2022/11/10 17:04:11;;;;;;;0.28;0.20;;;23.20;58.40;;;;;;6070424;28;21047;-36
2022/11/10 17:07:29;;;;;;;0.80;0.22;;;23.30;58.60;;;;;;6078759;28;20048;-36
2022/11/10 17:10:49;;;;;;;0.75;0.30;;;23.20;58.50;;;;;;6063327;28;20052;-37
2022/11/10 17:14:10;;;;;;;0.60;0.20;;;23.30;58.60;;;;;;6064747;28;20045;-36
2022/11/10 17:17:29;;;;;;;1.02;0.32;;;23.40;58.60;;;;;;6070072;28;20053;-36
2022/11/10 17:20:51;;;;;;;1.00;0.55;;;23.20;58.60;;;;;;6086817;28;23301;-36
2022/11/10 17:24:12;;;;;;;0.40;0.22;;;23.10;58.40;;;;;;6085465;28;20045;-36
2022/11/10 17:27:28;;;;;;;1.00;0.40;;;23.00;58.30;;;;;;6093858;28;20563;-36
2022/11/10 17:30:48;;;;;;;1.38;0.30;;;23.20;58.60;;;;;;6106388;28;20345;-36
2022/11/10 17:34:09;;;;;;;0.47;0.20;;;23.10;58.60;;;;;;6094164;28;21140;-36
2022/11/10 17:37:28;;;;;;;0.22;0.10;;;23.10;58.40;;;;;;6110654;28;20875;-35
2022/11/10 17:40:49;;;;;;;1.85;0.40;;;23.00;58.60;;;;;;6122319;28;20064;-36
2022/11/10 17:44:12;;;;;;;0.40;0.20;;;23.00;58.40;;;;;;6120816;28;20353;-37
2022/11/10 17:47:28;;;;;;;0.65;0.40;;;23.00;58.40;;;;;;6115617;28;20199;-35
2022/11/10 17:50:49;;;;;;;0.43;0.20;;;23.20;58.60;;;;;;6135915;28;20270;-36
2022/11/10 17:54:12;;;;;;;0.38;0.30;;;23.20;58.70;;;;;;6144287;28;20226;-39
2022/11/10 17:57:28;;;;;;;0.20;0.20;;;23.30;58.60;;;;;;6140023;28;20060;-36
2022/11/10 18:00:48;;;;;;;0.45;0.20;;;23.20;58.70;;;;;;6154971;28;20056;-36